createdAt,value
2018-11-05T00:00:28.167Z,61.20
2018-11-05T00:01:28.173Z,67.80
2018-11-05T00:02:27.983Z,67.70
2018-11-05T00:03:27.872Z,67.70
2018-11-05T00:04:27.774Z,65.60
2018-11-05T00:05:27.678Z,68.20
2018-11-05T00:06:27.582Z,69.00
2018-11-05T00:07:27.517Z,68.20
2018-11-05T00:08:27.498Z,58.60
2018-11-05T00:09:27.307Z,67.60
2018-11-05T00:10:27.197Z,73.30
2018-11-05T00:11:27.104Z,75.60
2018-11-05T00:12:27.023Z,69.60
2018-11-05T00:13:26.906Z,68.70
2018-11-05T00:14:26.813Z,73.00
2018-11-05T00:15:26.825Z,64.80
2018-11-05T00:16:26.617Z,70.20
2018-11-05T00:17:26.539Z,68.70
2018-11-05T00:18:26.425Z,71.00
2018-11-05T00:19:26.332Z,71.00
2018-11-05T00:20:26.236Z,67.10
2018-11-05T00:21:26.141Z,70.40
2018-11-05T00:22:26.164Z,65.30
2018-11-05T00:23:25.945Z,67.20
2018-11-05T00:24:25.849Z,65.70
2018-11-05T00:25:25.751Z,66.50
2018-11-05T00:26:25.657Z,69.50
2018-11-05T00:27:25.581Z,69.60
2018-11-05T00:28:25.564Z,63.20
2018-11-05T00:29:25.372Z,68.10
2018-11-05T00:30:25.274Z,64.80
2018-11-05T00:31:25.177Z,63.00
2018-11-05T00:32:25.095Z,65.90
2018-11-05T00:33:25.002Z,72.20
2018-11-05T00:34:24.887Z,65.10
2018-11-05T00:35:24.790Z,65.30
2018-11-05T00:36:24.805Z,66.70
2018-11-05T00:37:24.615Z,63.00
2018-11-05T00:38:24.500Z,59.50
2018-11-05T00:39:24.404Z,62.50
2018-11-05T00:40:24.309Z,63.20
2018-11-05T00:41:24.212Z,62.20
2018-11-05T00:42:24.237Z,65.20
2018-11-05T00:43:24.020Z,64.00
2018-11-05T00:44:23.922Z,67.80
2018-11-05T00:45:23.891Z,63.20
2018-11-05T00:46:23.732Z,64.60
2018-11-05T00:47:23.636Z,59.70
2018-11-05T00:48:23.556Z,67.70
2018-11-05T00:49:23.445Z,61.90
2018-11-05T00:50:23.350Z,63.30
2018-11-05T00:51:23.253Z,60.40
2018-11-05T00:52:23.157Z,56.30
2018-11-05T00:53:23.073Z,58.00
2018-11-05T00:54:22.959Z,64.30
2018-11-05T00:55:22.866Z,66.30
2018-11-05T00:56:24.221Z,57.60
2018-11-05T00:57:22.676Z,64.70
2018-11-05T00:58:22.591Z,63.00
2018-11-05T00:59:22.484Z,62.50
2018-11-05T01:00:22.388Z,68.70
2018-11-05T01:01:22.292Z,63.00
2018-11-05T01:02:22.198Z,63.10
2018-11-05T01:03:22.115Z,60.10
2018-11-05T01:04:22.000Z,64.30
2018-11-05T01:05:21.907Z,60.80
2018-11-05T01:06:21.822Z,57.60
2018-11-05T01:07:21.710Z,59.40
2018-11-05T01:08:21.631Z,58.60
2018-11-05T01:09:21.518Z,58.90
2018-11-05T01:10:21.420Z,63.50
2018-11-05T01:11:21.326Z,65.70
2018-11-05T01:12:21.229Z,62.40
2018-11-05T01:13:21.150Z,61.30
2018-11-05T01:14:21.035Z,64.80
2018-11-05T01:15:20.939Z,64.60
2018-11-05T01:16:20.845Z,63.40
2018-11-05T01:17:20.745Z,65.00
2018-11-05T01:18:20.670Z,59.50
2018-11-05T01:19:20.553Z,61.70
2018-11-05T01:20:20.456Z,64.20
2018-11-05T01:21:20.362Z,64.40
2018-11-05T01:22:20.267Z,67.00
2018-11-05T01:23:20.185Z,62.70
2018-11-05T01:24:20.075Z,64.60
2018-11-05T01:25:20.020Z,66.70
2018-11-05T01:26:19.882Z,64.10
2018-11-05T01:27:19.785Z,59.70
2018-11-05T01:28:19.704Z,63.60
2018-11-05T01:29:19.590Z,62.80
2018-11-05T01:30:19.494Z,61.90
2018-11-05T01:31:19.399Z,60.60
2018-11-05T01:32:19.299Z,61.10
2018-11-05T01:33:19.220Z,61.30
2018-11-05T01:34:19.109Z,62.20
2018-11-05T01:35:19.013Z,62.10
2018-11-05T01:36:18.916Z,63.50
2018-11-05T01:37:18.887Z,62.00
2018-11-05T01:38:18.740Z,66.40
2018-11-05T01:39:18.625Z,59.30
2018-11-05T01:40:18.532Z,67.00
2018-11-05T01:41:18.438Z,68.20
2018-11-05T01:42:18.336Z,68.80
2018-11-05T01:43:18.254Z,67.30
2018-11-05T01:44:18.142Z,68.50
2018-11-05T01:45:18.045Z,68.70
2018-11-05T01:46:17.950Z,64.30
2018-11-05T01:47:17.856Z,63.40
2018-11-05T01:48:17.772Z,65.00
2018-11-05T01:49:17.662Z,70.00
2018-11-05T01:50:17.562Z,63.50
2018-11-05T01:51:17.465Z,64.10
2018-11-05T01:52:17.365Z,68.90
2018-11-05T01:53:17.312Z,66.20
2018-11-05T01:54:17.173Z,66.90
2018-11-05T01:55:17.080Z,69.70
2018-11-05T01:56:16.982Z,65.90
2018-11-05T01:57:16.882Z,65.70
2018-11-05T01:58:16.810Z,66.30
2018-11-05T01:59:16.799Z,69.50
2018-11-05T02:00:16.594Z,65.70
2018-11-05T02:01:16.499Z,68.10
2018-11-05T02:02:16.404Z,69.40
2018-11-05T02:03:16.324Z,67.30
2018-11-05T02:04:16.207Z,68.50
2018-11-05T02:05:16.129Z,71.70
2018-11-05T02:06:16.148Z,66.30
2018-11-05T02:07:15.923Z,63.10
2018-11-05T02:08:15.840Z,67.40
2018-11-05T02:09:15.725Z,66.90
2018-11-05T02:10:15.743Z,65.00
2018-11-05T02:11:15.534Z,65.60
2018-11-05T02:12:15.435Z,66.80
2018-11-05T02:13:15.478Z,71.60
2018-11-05T02:14:15.241Z,70.00
2018-11-05T02:15:15.145Z,68.00
2018-11-05T02:16:15.092Z,64.30
2018-11-05T02:17:14.951Z,69.00
2018-11-05T02:18:14.875Z,67.70
2018-11-05T02:19:14.765Z,61.70
2018-11-05T02:20:14.766Z,64.10
2018-11-05T02:21:14.565Z,66.50
2018-11-05T02:22:14.474Z,68.20
2018-11-05T02:23:14.390Z,68.00
2018-11-05T02:24:14.277Z,71.50
2018-11-05T02:25:14.181Z,67.90
2018-11-05T02:26:14.082Z,70.20
2018-11-05T02:27:14.181Z,68.60
2018-11-05T02:28:13.894Z,66.40
2018-11-05T02:29:13.811Z,64.30
2018-11-05T02:30:13.705Z,65.20
2018-11-05T02:31:13.604Z,70.60
2018-11-05T02:32:13.507Z,67.60
2018-11-05T02:33:13.414Z,68.00
2018-11-05T02:34:13.424Z,63.40
2018-11-05T02:35:13.215Z,66.10
2018-11-05T02:36:13.114Z,62.90
2018-11-05T02:37:13.017Z,64.80
2018-11-05T02:38:12.923Z,67.90
2018-11-05T02:39:12.848Z,62.70
2018-11-05T02:40:12.726Z,72.10
2018-11-05T02:41:12.734Z,68.00
2018-11-05T02:42:12.538Z,75.30
2018-11-05T02:43:12.441Z,80.10
2018-11-05T02:44:12.361Z,77.40
2018-11-05T02:45:12.251Z,74.30
2018-11-05T02:46:12.149Z,74.50
2018-11-05T02:47:12.050Z,74.50
2018-11-05T02:48:12.061Z,74.80
2018-11-05T02:49:11.875Z,74.40
2018-11-05T02:50:11.761Z,78.20
2018-11-05T02:51:11.668Z,76.90
2018-11-05T02:52:11.572Z,75.50
2018-11-05T02:53:11.468Z,75.60
2018-11-05T02:54:11.392Z,76.80
2018-11-05T02:55:11.386Z,77.40
2018-11-05T02:56:11.182Z,79.10
2018-11-05T02:57:11.082Z,72.70
2018-11-05T02:58:10.985Z,79.50
2018-11-05T02:59:10.907Z,74.90
2018-11-05T03:00:10.799Z,72.90
2018-11-05T03:01:10.696Z,77.70
2018-11-05T03:02:10.708Z,78.60
2018-11-05T03:03:10.656Z,75.00
2018-11-05T03:04:10.440Z,77.60
2018-11-05T03:05:10.316Z,74.50
2018-11-05T03:06:10.213Z,75.10
2018-11-05T03:07:10.114Z,79.10
2018-11-05T03:08:10.017Z,79.60
2018-11-05T03:09:09.937Z,82.30
2018-11-05T03:10:09.833Z,78.20
2018-11-05T03:11:09.727Z,74.00
2018-11-05T03:12:09.632Z,80.20
2018-11-05T03:13:09.535Z,87.30
2018-11-05T03:14:09.473Z,78.10
2018-11-05T03:15:09.352Z,75.70
2018-11-05T03:16:09.245Z,76.30
2018-11-05T03:17:09.149Z,73.20
2018-11-05T03:18:09.052Z,79.00
2018-11-05T03:19:08.975Z,79.60
2018-11-05T03:20:08.855Z,82.10
2018-11-05T03:21:08.761Z,80.30
2018-11-05T03:22:08.661Z,84.40
2018-11-05T03:23:08.565Z,88.50
2018-11-05T03:24:08.483Z,86.50
2018-11-05T03:25:08.370Z,82.00
2018-11-05T03:26:08.274Z,82.10
2018-11-05T03:27:08.179Z,79.00
2018-11-05T03:28:08.084Z,81.90
2018-11-05T03:29:08.002Z,76.50
2018-11-05T03:30:07.890Z,88.40
2018-11-05T03:31:07.911Z,77.60
2018-11-05T03:32:07.695Z,82.00
2018-11-05T03:33:07.599Z,74.80
2018-11-05T03:34:07.517Z,82.10
2018-11-05T03:35:07.407Z,77.60
2018-11-05T03:36:07.306Z,82.10
2018-11-05T03:37:07.213Z,76.60
2018-11-05T03:38:07.112Z,74.00
2018-11-05T03:39:07.033Z,83.90
2018-11-05T03:40:06.920Z,83.60
2018-11-05T03:41:06.820Z,81.60
2018-11-05T03:42:06.726Z,80.60
2018-11-05T03:43:06.627Z,77.90
2018-11-05T03:44:06.550Z,80.70
2018-11-05T03:45:06.432Z,82.70
2018-11-05T03:46:06.350Z,78.60
2018-11-05T03:47:06.243Z,82.30
2018-11-05T03:48:06.148Z,71.20
2018-11-05T03:49:06.063Z,77.50
2018-11-05T03:50:05.952Z,74.80
2018-11-05T03:51:05.854Z,80.20
2018-11-05T03:52:05.754Z,75.80
2018-11-05T03:53:05.659Z,76.60
2018-11-05T03:54:05.579Z,81.20
2018-11-05T03:55:05.468Z,77.90
2018-11-05T03:56:05.450Z,68.80
2018-11-05T03:57:05.269Z,70.20
2018-11-05T03:58:05.174Z,66.30
2018-11-05T03:59:05.095Z,75.30
2018-11-05T04:00:04.977Z,69.20
2018-11-05T04:01:04.881Z,69.30
2018-11-05T04:02:04.806Z,64.00
2018-11-05T04:03:04.724Z,63.40
2018-11-05T04:04:04.611Z,66.80
2018-11-05T04:05:04.498Z,68.10
2018-11-05T04:06:04.402Z,63.90
2018-11-05T04:07:04.303Z,67.00
2018-11-05T04:08:04.203Z,70.10
2018-11-05T04:09:04.126Z,72.30
2018-11-05T04:10:04.013Z,65.10
2018-11-05T04:11:03.916Z,66.90
2018-11-05T04:12:03.817Z,70.60
2018-11-05T04:13:03.719Z,66.20
2018-11-05T04:14:03.643Z,70.50
2018-11-05T04:15:03.527Z,70.00
2018-11-05T04:16:03.444Z,68.70
2018-11-05T04:17:03.330Z,72.00
2018-11-05T04:18:03.236Z,69.80
2018-11-05T04:19:03.142Z,70.00
2018-11-05T04:20:03.061Z,72.40
2018-11-05T04:21:02.943Z,67.10
2018-11-05T04:22:02.849Z,68.90
2018-11-05T04:23:02.753Z,71.90
2018-11-05T04:24:02.654Z,71.10
2018-11-05T04:25:02.581Z,64.00
2018-11-05T04:26:02.461Z,67.40
2018-11-05T04:27:02.364Z,69.00
2018-11-05T04:28:02.325Z,71.10
2018-11-05T04:29:02.176Z,70.30
2018-11-05T04:30:02.095Z,65.40
2018-11-05T04:31:01.983Z,67.40
2018-11-05T04:32:01.879Z,71.50
2018-11-05T04:33:01.782Z,62.30
2018-11-05T04:34:01.690Z,65.10
2018-11-05T04:35:01.608Z,65.40
2018-11-05T04:36:01.491Z,67.60
2018-11-05T04:37:01.400Z,67.80
2018-11-05T04:38:01.301Z,66.30
2018-11-05T04:39:01.205Z,67.60
2018-11-05T04:40:01.129Z,68.70
2018-11-05T04:41:01.009Z,68.30
2018-11-05T04:42:00.911Z,72.80
2018-11-05T04:43:00.821Z,63.70
2018-11-05T04:44:00.714Z,64.20
2018-11-05T04:45:00.637Z,65.60
2018-11-05T04:46:00.528Z,65.50
2018-11-05T04:47:00.424Z,58.80
2018-11-05T04:48:00.325Z,59.40
2018-11-05T04:49:00.246Z,59.20
2018-11-05T04:50:00.152Z,54.20
2018-11-05T04:51:00.039Z,58.10
2018-11-05T04:51:59.954Z,59.00
2018-11-05T04:52:59.846Z,59.60
2018-11-05T04:53:59.746Z,58.50
2018-11-05T04:54:59.667Z,57.60
2018-11-05T04:55:59.552Z,57.80
2018-11-05T04:56:59.458Z,60.50
2018-11-05T04:57:59.362Z,61.80
2018-11-05T04:58:59.266Z,60.60
2018-11-05T04:59:59.182Z,57.30
2018-11-05T05:00:59.071Z,59.90
2018-11-05T05:01:58.975Z,59.50
2018-11-05T05:02:58.876Z,59.40
2018-11-05T05:03:58.776Z,59.20
2018-11-05T05:04:58.701Z,59.80
2018-11-05T05:05:58.584Z,59.10
2018-11-05T05:06:58.489Z,57.60
2018-11-05T05:07:58.393Z,57.90
2018-11-05T05:08:58.294Z,58.90
2018-11-05T05:09:58.216Z,60.90
2018-11-05T05:10:58.101Z,60.80
2018-11-05T05:11:58.003Z,57.70
2018-11-05T05:12:57.907Z,58.70
2018-11-05T05:13:57.812Z,61.60
2018-11-05T05:14:57.837Z,65.10
2018-11-05T05:15:57.622Z,63.80
2018-11-05T05:16:57.523Z,62.80
2018-11-05T05:17:57.428Z,61.10
2018-11-05T05:18:57.331Z,65.60
2018-11-05T05:19:57.259Z,62.50
2018-11-05T05:20:57.140Z,64.60
2018-11-05T05:21:57.143Z,64.50
2018-11-05T05:22:57.094Z,63.20
2018-11-05T05:23:56.845Z,63.50
2018-11-05T05:24:56.770Z,67.30
2018-11-05T05:25:56.653Z,61.90
2018-11-05T05:26:56.557Z,64.00
2018-11-05T05:27:56.461Z,66.10
2018-11-05T05:28:56.461Z,62.60
2018-11-05T05:29:56.301Z,63.60
2018-11-05T05:30:56.167Z,65.40
2018-11-05T05:31:56.073Z,65.00
2018-11-05T05:32:56.017Z,65.50
2018-11-05T05:33:55.880Z,67.50
2018-11-05T05:34:55.800Z,65.30
2018-11-05T05:35:55.788Z,66.50
2018-11-05T05:36:55.589Z,70.20
2018-11-05T05:37:55.491Z,66.10
2018-11-05T05:38:55.397Z,66.40
2018-11-05T05:39:55.317Z,70.50
2018-11-05T05:40:55.317Z,70.00
2018-11-05T05:41:55.106Z,67.20
2018-11-05T05:42:55.118Z,65.80
2018-11-05T05:43:54.913Z,65.60
2018-11-05T05:44:54.834Z,66.00
2018-11-05T05:45:54.719Z,63.30
2018-11-05T05:46:54.624Z,68.90
2018-11-05T05:47:54.526Z,66.40
2018-11-05T05:48:54.439Z,60.40
2018-11-05T05:49:54.501Z,66.40
2018-11-05T05:50:54.236Z,65.00
2018-11-05T05:51:54.139Z,66.70
2018-11-05T05:52:54.049Z,70.10
2018-11-05T05:53:53.948Z,66.20
2018-11-05T05:54:53.866Z,63.90
2018-11-05T05:55:53.751Z,66.20
2018-11-05T05:56:53.758Z,68.80
2018-11-05T05:57:53.561Z,65.80
2018-11-05T05:58:53.461Z,67.40
2018-11-05T05:59:53.426Z,57.60
2018-11-05T06:00:53.288Z,63.70
2018-11-05T06:01:53.174Z,65.30
2018-11-05T06:02:53.073Z,66.20
2018-11-05T06:03:53.086Z,64.00
2018-11-05T06:04:56.568Z,63.20
2018-11-05T06:05:52.848Z,64.50
2018-11-05T06:06:52.690Z,64.00
2018-11-05T06:07:52.593Z,64.80
2018-11-05T06:08:52.494Z,66.20
2018-11-05T06:09:52.401Z,65.60
2018-11-05T06:10:52.321Z,63.80
2018-11-05T06:11:52.204Z,60.30
2018-11-05T06:12:52.109Z,62.00
2018-11-05T06:13:52.013Z,63.80
2018-11-05T06:14:51.920Z,61.10
2018-11-05T06:15:51.924Z,67.20
2018-11-05T06:16:51.722Z,64.20
2018-11-05T06:17:51.627Z,68.00
2018-11-05T06:18:51.533Z,65.40
2018-11-05T06:19:51.434Z,65.20
2018-11-05T06:20:51.352Z,67.50
2018-11-05T06:21:51.311Z,64.90
2018-11-05T06:22:51.141Z,67.20
2018-11-05T06:23:51.048Z,60.60
2018-11-05T06:24:50.947Z,68.40
2018-11-05T06:25:50.867Z,64.70
2018-11-05T06:26:50.754Z,64.90
2018-11-05T06:27:50.673Z,67.00
2018-11-05T06:28:50.564Z,68.30
2018-11-05T06:29:50.466Z,68.10
2018-11-05T06:30:50.392Z,69.80
2018-11-05T06:31:50.273Z,66.60
2018-11-05T06:32:50.179Z,64.40
2018-11-05T06:33:50.088Z,64.10
2018-11-05T06:34:49.986Z,68.70
2018-11-05T06:35:49.902Z,64.40
2018-11-05T06:36:49.790Z,66.00
2018-11-05T06:37:49.690Z,69.90
2018-11-05T06:38:49.597Z,69.20
2018-11-05T06:39:49.502Z,68.50
2018-11-05T06:40:49.418Z,69.00
2018-11-05T06:41:49.369Z,68.90
2018-11-05T06:42:49.211Z,66.70
2018-11-05T06:43:49.115Z,69.00
2018-11-05T06:44:49.080Z,66.90
2018-11-05T06:45:48.942Z,66.00
2018-11-05T06:46:48.823Z,69.50
2018-11-05T06:47:48.725Z,67.90
2018-11-05T06:48:48.684Z,64.30
2018-11-05T06:49:48.532Z,56.10
2018-11-05T06:50:48.454Z,62.80
2018-11-05T06:51:48.338Z,64.60
2018-11-05T06:52:48.284Z,60.70
2018-11-05T06:53:48.149Z,64.00
2018-11-05T06:54:48.056Z,64.00
2018-11-05T06:55:47.968Z,63.00
2018-11-05T06:56:47.855Z,62.30
2018-11-05T06:57:47.843Z,59.90
2018-11-05T06:58:47.665Z,64.20
2018-11-05T06:59:47.570Z,63.90
2018-11-05T07:00:47.524Z,60.20
2018-11-05T07:01:47.377Z,60.10
2018-11-05T07:02:47.281Z,56.80
2018-11-05T07:03:47.183Z,60.40
2018-11-05T07:04:47.088Z,61.10
2018-11-05T07:05:47.024Z,61.20
2018-11-05T07:06:46.894Z,59.70
2018-11-05T07:07:46.798Z,59.10
2018-11-05T07:08:46.702Z,59.50
2018-11-05T07:09:46.672Z,60.80
2018-11-05T07:10:46.523Z,60.40
2018-11-05T07:11:46.410Z,59.60
2018-11-05T07:12:46.419Z,59.20
2018-11-05T07:13:46.220Z,59.70
2018-11-05T07:14:46.125Z,62.00
2018-11-05T07:15:46.043Z,64.80
2018-11-05T07:16:45.934Z,62.70
2018-11-05T07:17:45.832Z,60.00
2018-11-05T07:18:46.014Z,60.40
2018-11-05T07:19:45.645Z,63.00
2018-11-05T07:20:45.562Z,62.30
2018-11-05T07:21:45.449Z,60.40
2018-11-05T07:22:45.350Z,64.60
2018-11-05T07:23:45.253Z,63.10
2018-11-05T07:24:45.161Z,59.90
2018-11-05T07:25:45.082Z,56.80
2018-11-05T07:26:45.071Z,60.70
2018-11-05T07:27:44.971Z,62.70
2018-11-05T07:28:44.779Z,60.80
2018-11-05T07:29:44.677Z,61.90
2018-11-05T07:30:44.601Z,59.30
2018-11-05T07:31:44.483Z,58.50
2018-11-05T07:32:44.389Z,58.80
2018-11-05T07:33:44.466Z,59.30
2018-11-05T07:34:44.199Z,60.10
2018-11-05T07:35:44.118Z,59.10
2018-11-05T07:36:44.007Z,59.80
2018-11-05T07:37:43.906Z,60.10
2018-11-05T07:38:43.818Z,59.60
2018-11-05T07:39:43.718Z,58.00
2018-11-05T07:40:43.743Z,59.30
2018-11-05T07:41:43.526Z,58.00
2018-11-05T07:42:43.429Z,60.20
2018-11-05T07:43:43.333Z,58.60
2018-11-05T07:44:43.237Z,57.30
2018-11-05T07:45:43.158Z,58.30
2018-11-05T07:46:43.043Z,61.10
2018-11-05T07:47:43.065Z,61.40
2018-11-05T07:48:42.854Z,58.90
2018-11-05T07:49:42.755Z,56.50
2018-11-05T07:50:42.723Z,58.60
2018-11-05T07:51:42.580Z,59.80
2018-11-05T07:52:42.468Z,58.50
2018-11-05T07:53:42.370Z,58.40
2018-11-05T07:54:42.380Z,58.30
2018-11-05T07:55:42.181Z,55.40
2018-11-05T07:56:42.109Z,57.50
2018-11-05T07:57:41.990Z,57.00
2018-11-05T07:58:41.890Z,57.70
2018-11-05T07:59:41.792Z,55.60
2018-11-05T08:00:41.700Z,55.90
2018-11-05T08:01:41.763Z,55.50
2018-11-05T08:02:41.529Z,55.90
2018-11-05T08:03:41.408Z,58.40
2018-11-05T08:04:41.320Z,56.30
2018-11-05T08:05:41.219Z,55.60
2018-11-05T08:06:41.137Z,52.90
2018-11-05T08:07:41.026Z,57.40
2018-11-05T08:08:41.029Z,55.60
2018-11-05T08:09:40.830Z,57.20
2018-11-05T08:10:40.739Z,57.00
2018-11-05T08:11:40.656Z,54.00
2018-11-05T08:12:40.542Z,55.60
2018-11-05T08:13:40.449Z,54.10
2018-11-05T08:14:40.357Z,56.90
2018-11-05T08:15:40.402Z,52.80
2018-11-05T08:16:40.177Z,54.50
2018-11-05T08:17:40.067Z,53.70
2018-11-05T08:18:39.982Z,53.60
2018-11-05T08:19:39.873Z,54.00
2018-11-05T08:20:39.775Z,53.50
2018-11-05T08:21:39.696Z,55.70
2018-11-05T08:22:39.683Z,53.70
2018-11-05T08:23:39.491Z,54.90
2018-11-05T08:24:39.395Z,55.40
2018-11-05T08:25:39.301Z,55.80
2018-11-05T08:26:39.220Z,53.50
2018-11-05T08:27:39.108Z,54.00
2018-11-05T08:28:39.015Z,53.70
2018-11-05T08:29:39.014Z,56.40
2018-11-05T08:30:38.821Z,49.00
2018-11-05T08:31:38.740Z,54.90
2018-11-05T08:32:38.630Z,55.50
2018-11-05T08:33:38.535Z,53.60
2018-11-05T08:34:38.442Z,54.20
2018-11-05T08:35:38.339Z,54.70
2018-11-05T08:36:38.367Z,53.90
2018-11-05T08:37:38.158Z,54.40
2018-11-05T08:38:38.055Z,52.70
2018-11-05T08:39:37.959Z,55.30
2018-11-05T08:40:37.864Z,53.70
2018-11-05T08:41:37.790Z,55.60
2018-11-05T08:42:37.770Z,53.00
2018-11-05T08:43:37.577Z,53.70
2018-11-05T08:44:37.480Z,52.40
2018-11-05T08:45:37.386Z,52.80
2018-11-05T08:46:37.356Z,53.70
2018-11-05T08:47:37.193Z,52.50
2018-11-05T08:48:37.099Z,52.70
2018-11-05T08:49:37.002Z,54.10
2018-11-05T08:50:37.090Z,52.60
2018-11-05T08:51:37.210Z,51.60
2018-11-05T08:52:36.718Z,50.20
2018-11-05T08:53:36.619Z,51.50
2018-11-05T08:54:36.527Z,52.30
2018-11-05T08:55:36.425Z,51.60
2018-11-05T08:56:36.355Z,51.00
2018-11-05T08:57:36.243Z,51.80
2018-11-05T08:58:36.141Z,52.80
2018-11-05T08:59:36.046Z,52.40
2018-11-05T09:00:35.954Z,51.20
2018-11-05T09:01:35.873Z,50.30
2018-11-05T09:02:35.770Z,51.00
2018-11-05T09:03:35.668Z,49.90
2018-11-05T09:04:35.594Z,50.30
2018-11-05T09:05:35.475Z,50.90
2018-11-05T09:06:35.398Z,49.80
2018-11-05T09:07:35.285Z,50.20
2018-11-05T09:08:35.188Z,50.50
2018-11-05T09:09:35.092Z,50.10
2018-11-05T09:10:35.434Z,48.90
2018-11-05T09:11:35.304Z,49.50
2018-11-05T09:12:34.805Z,49.20
2018-11-05T09:13:34.709Z,49.50
2018-11-05T09:14:34.616Z,50.50
2018-11-05T09:15:34.521Z,49.50
2018-11-05T09:16:34.442Z,51.60
2018-11-05T09:17:34.330Z,49.30
2018-11-05T09:18:34.237Z,51.30
2018-11-05T09:19:34.147Z,49.40
2018-11-05T09:20:34.051Z,51.70
2018-11-05T09:21:33.965Z,50.80
2018-11-05T09:22:33.858Z,51.00
2018-11-05T09:23:33.759Z,49.90
2018-11-05T09:24:33.661Z,50.70
2018-11-05T09:25:33.567Z,49.00
2018-11-05T09:26:33.489Z,49.50
2018-11-05T09:27:33.382Z,49.50
2018-11-05T09:28:33.284Z,48.40
2018-11-05T09:29:33.187Z,49.40
2018-11-05T09:30:33.090Z,49.70
2018-11-05T09:31:33.024Z,49.90
2018-11-05T09:32:32.902Z,50.10
2018-11-05T09:33:32.809Z,49.70
2018-11-05T09:34:32.710Z,47.60
2018-11-05T09:35:32.616Z,49.40
2018-11-05T09:36:32.537Z,49.40
2018-11-05T09:37:32.442Z,50.00
2018-11-05T09:38:32.329Z,47.70
2018-11-05T09:39:32.251Z,50.10
2018-11-05T09:40:32.139Z,48.20
2018-11-05T09:41:32.045Z,49.30
2018-11-05T09:42:31.981Z,49.60
2018-11-05T09:43:31.852Z,48.00
2018-11-05T09:44:31.759Z,46.50
2018-11-05T09:45:31.771Z,49.10
2018-11-05T09:46:31.568Z,48.30
2018-11-05T09:47:31.490Z,48.20
2018-11-05T09:48:31.378Z,46.90
2018-11-05T09:49:31.291Z,49.30
2018-11-05T09:50:31.265Z,45.80
2018-11-05T09:51:31.093Z,46.70
2018-11-05T09:52:31.103Z,47.30
2018-11-05T09:53:30.902Z,48.20
2018-11-05T09:54:30.814Z,48.20
2018-11-05T09:55:30.744Z,48.10
2018-11-05T09:56:30.623Z,45.40
2018-11-05T09:57:30.543Z,47.50
2018-11-05T09:58:30.429Z,47.10
2018-11-05T09:59:30.443Z,45.70
2018-11-05T10:00:30.239Z,46.40
2018-11-05T10:01:30.147Z,46.30
2018-11-05T10:02:30.055Z,45.90
2018-11-05T10:03:30.239Z,45.30
2018-11-05T10:04:30.069Z,45.00
2018-11-05T10:05:29.848Z,40.90
2018-11-05T10:06:29.783Z,46.30
2018-11-05T10:07:29.576Z,46.10
2018-11-05T10:08:29.500Z,45.70
2018-11-05T10:09:29.480Z,43.20
2018-11-05T10:10:29.327Z,42.70
2018-11-05T10:11:29.200Z,44.30
2018-11-05T10:12:29.109Z,45.10
2018-11-05T10:13:29.028Z,45.90
2018-11-05T10:14:28.918Z,45.10
2018-11-05T10:15:28.819Z,46.50
2018-11-05T10:16:28.808Z,45.00
2018-11-05T10:17:28.629Z,45.40
2018-11-05T10:18:28.554Z,43.10
2018-11-05T10:19:28.445Z,45.90
2018-11-05T10:20:28.347Z,44.20
2018-11-05T10:21:28.259Z,45.10
2018-11-05T10:22:28.167Z,46.70
2018-11-05T10:23:28.081Z,44.40
2018-11-05T10:24:28.035Z,45.20
2018-11-05T10:25:27.883Z,44.90
2018-11-05T10:26:27.786Z,44.40
2018-11-05T10:27:27.703Z,45.60
2018-11-05T10:28:27.711Z,45.00
2018-11-05T10:29:27.497Z,44.00
2018-11-05T10:30:27.405Z,44.50
2018-11-05T10:31:27.320Z,42.80
2018-11-05T10:32:27.213Z,44.10
2018-11-05T10:33:27.201Z,43.60
2018-11-05T10:34:27.027Z,43.90
2018-11-05T10:35:27.036Z,43.70
2018-11-05T10:36:26.835Z,44.80
2018-11-05T10:37:26.745Z,41.70
2018-11-05T10:38:26.685Z,45.90
2018-11-05T10:39:26.557Z,45.70
2018-11-05T10:40:26.515Z,45.50
2018-11-05T10:41:26.370Z,43.50
2018-11-05T10:42:26.376Z,45.70
2018-11-05T10:43:26.194Z,43.70
2018-11-05T10:44:26.080Z,44.30
2018-11-05T10:45:25.988Z,45.20
2018-11-05T10:46:25.994Z,45.40
2018-11-05T10:47:25.802Z,44.50
2018-11-05T10:48:25.723Z,44.80
2018-11-05T10:49:25.714Z,43.70
2018-11-05T10:50:25.634Z,45.60
2018-11-05T10:51:25.505Z,43.30
2018-11-05T10:52:25.384Z,43.00
2018-11-05T10:53:25.246Z,44.00
2018-11-05T10:54:25.145Z,45.60
2018-11-05T10:55:25.046Z,44.00
2018-11-05T10:56:25.050Z,44.90
2018-11-05T10:57:24.884Z,43.10
2018-11-05T10:58:24.781Z,42.90
2018-11-05T10:59:24.665Z,43.70
2018-11-05T11:00:24.572Z,43.70
2018-11-05T11:01:24.480Z,42.60
2018-11-05T11:02:24.390Z,42.20
2018-11-05T11:03:24.410Z,42.20
2018-11-05T11:04:24.200Z,42.20
2018-11-05T11:05:24.108Z,42.70
2018-11-05T11:06:24.012Z,42.40
2018-11-05T11:07:23.925Z,41.80
2018-11-05T11:08:23.834Z,42.00
2018-11-05T11:09:23.868Z,40.50
2018-11-05T11:10:23.630Z,39.60
2018-11-05T11:11:23.535Z,41.20
2018-11-05T11:12:23.452Z,41.30
2018-11-05T11:13:23.355Z,41.10
2018-11-05T11:14:23.272Z,40.50
2018-11-05T11:15:23.232Z,40.40
2018-11-05T11:16:23.066Z,39.10
2018-11-05T11:17:22.972Z,42.80
2018-11-05T11:18:22.897Z,41.00
2018-11-05T11:19:22.784Z,40.60
2018-11-05T11:20:22.690Z,40.90
2018-11-05T11:21:22.594Z,40.60
2018-11-05T11:22:22.507Z,40.00
2018-11-05T11:23:22.410Z,40.80
2018-11-05T11:24:22.336Z,36.90
2018-11-05T11:25:22.219Z,42.80
2018-11-05T11:26:22.126Z,41.20
2018-11-05T11:27:22.030Z,42.00
2018-11-05T11:28:22.003Z,41.80
2018-11-05T11:29:21.938Z,41.10
2018-11-05T11:30:21.752Z,42.70
2018-11-05T11:31:21.662Z,42.50
2018-11-05T11:32:21.562Z,42.40
2018-11-05T11:33:21.472Z,42.80
2018-11-05T11:34:21.395Z,43.00
2018-11-05T11:35:21.279Z,43.80
2018-11-05T11:36:21.186Z,42.90
2018-11-05T11:37:21.171Z,42.00
2018-11-05T11:38:21.000Z,40.80
2018-11-05T11:39:20.916Z,42.30
2018-11-05T11:40:20.808Z,39.90
2018-11-05T11:41:20.711Z,42.50
2018-11-05T11:42:20.631Z,40.50
2018-11-05T11:43:20.525Z,40.50
2018-11-05T11:44:20.548Z,40.10
2018-11-05T11:45:20.337Z,43.50
2018-11-05T11:46:20.241Z,39.30
2018-11-05T11:47:20.145Z,41.20
2018-11-05T11:48:20.056Z,42.00
2018-11-05T11:49:19.973Z,41.80
2018-11-05T11:50:19.865Z,41.50
2018-11-05T11:51:19.775Z,41.20
2018-11-05T11:52:19.682Z,42.50
2018-11-05T11:53:19.666Z,41.40
2018-11-05T11:54:19.502Z,42.10
2018-11-05T11:55:19.393Z,42.50
2018-11-05T11:56:19.301Z,41.40
2018-11-05T11:57:19.218Z,41.90
2018-11-05T11:58:19.108Z,41.30
2018-11-05T11:59:19.030Z,41.10
2018-11-05T12:00:18.919Z,40.00
2018-11-05T12:01:18.835Z,41.40
2018-11-05T12:02:18.795Z,38.40
2018-11-05T12:03:18.671Z,39.90
2018-11-05T12:04:18.556Z,38.60
2018-11-05T12:05:18.581Z,40.10
2018-11-05T12:06:18.357Z,38.80
2018-11-05T12:07:18.258Z,39.10
2018-11-05T12:08:18.162Z,40.80
2018-11-05T12:09:18.086Z,39.40
2018-11-05T12:10:17.979Z,40.50
2018-11-05T12:11:17.884Z,39.90
2018-11-05T12:12:17.789Z,36.40
2018-11-05T12:13:17.693Z,39.60
2018-11-05T12:14:17.631Z,38.20
2018-11-05T12:15:17.509Z,39.30
2018-11-05T12:16:17.414Z,39.90
2018-11-05T12:17:17.326Z,41.00
2018-11-05T12:18:17.247Z,41.90
2018-11-05T12:19:17.261Z,39.20
2018-11-05T12:20:17.049Z,42.00
2018-11-05T12:21:16.946Z,41.50
2018-11-05T12:22:16.851Z,42.10
2018-11-05T12:23:16.762Z,38.30
2018-11-05T12:24:16.681Z,41.20
2018-11-05T12:25:16.568Z,41.40
2018-11-05T12:26:16.579Z,42.50
2018-11-05T12:27:16.395Z,41.40
2018-11-05T12:28:16.289Z,38.80
2018-11-05T12:29:16.211Z,40.30
2018-11-05T12:30:16.100Z,42.70
2018-11-05T12:31:16.006Z,42.80
2018-11-05T12:32:15.920Z,39.00
2018-11-05T12:33:15.924Z,42.80
2018-11-05T12:34:15.742Z,44.80
2018-11-05T12:35:15.635Z,40.20
2018-11-05T12:36:15.537Z,39.60
2018-11-05T12:37:15.447Z,44.40
2018-11-05T12:38:15.367Z,43.50
2018-11-05T12:39:15.270Z,43.50
2018-11-05T12:40:15.261Z,43.60
2018-11-05T12:41:15.069Z,42.90
2018-11-05T12:42:14.982Z,45.50
2018-11-05T12:43:14.877Z,43.30
2018-11-05T12:44:14.799Z,43.80
2018-11-05T12:45:14.696Z,43.00
2018-11-05T12:46:14.597Z,41.40
2018-11-05T12:47:14.604Z,42.30
2018-11-05T12:48:14.404Z,43.60
2018-11-05T12:49:14.334Z,42.90
2018-11-05T12:50:14.218Z,40.10
2018-11-05T12:51:14.121Z,39.50